createdAt,value
2022-11-06T00:00:33.893Z,96465.50
2022-11-06T00:03:03.713Z,96412.19
2022-11-06T00:05:49.858Z,96452.50
2022-11-06T00:08:28.503Z,96466.28
2022-11-06T00:10:56.592Z,96463.75
2022-11-06T00:13:24.643Z,96465.28
2022-11-06T00:15:52.649Z,96428.22
2022-11-06T00:18:22.134Z,96430.81
2022-11-06T00:20:50.361Z,96454.00
2022-11-06T00:23:18.605Z,96457.31
2022-11-06T00:25:46.738Z,96430.22
2022-11-06T00:28:15.009Z,96463.13
2022-11-06T00:30:43.538Z,96457.78
2022-11-06T00:33:11.889Z,96387.38
2022-11-06T00:35:41.717Z,96464.03
2022-11-06T00:38:09.993Z,96486.63
2022-11-06T00:40:38.077Z,96470.97
2022-11-06T00:43:06.077Z,96485.16
2022-11-06T00:45:34.198Z,96478.50
2022-11-06T00:48:02.313Z,96487.22
2022-11-06T00:50:30.496Z,96485.84
2022-11-06T00:53:00.996Z,96469.25
2022-11-06T00:55:29.848Z,96493.75
2022-11-06T00:57:59.245Z,96494.00
2022-11-06T01:00:27.307Z,96484.69
2022-11-06T01:02:57.471Z,96480.69
2022-11-06T01:05:25.578Z,96473.25
2022-11-06T01:07:53.587Z,96497.47
2022-11-06T01:10:23.040Z,96500.06
2022-11-06T01:12:51.046Z,96502.53
2022-11-06T01:15:19.165Z,96482.63
2022-11-06T01:17:47.224Z,96490.22
2022-11-06T01:20:15.232Z,96496.72
2022-11-06T01:22:43.205Z,96503.44
2022-11-06T01:25:11.376Z,96497.28
2022-11-06T01:27:40.780Z,96503.66
2022-11-06T01:30:10.074Z,96501.22
2022-11-06T01:32:38.079Z,96503.00
2022-11-06T01:35:06.676Z,96501.44
2022-11-06T01:37:34.676Z,96505.06
2022-11-06T01:40:02.846Z,96501.03
2022-11-06T01:42:30.796Z,96501.03
2022-11-06T01:45:25.738Z,96500.22
2022-11-06T01:47:53.885Z,96435.06
2022-11-06T01:50:22.031Z,96428.50
2022-11-06T01:52:50.654Z,96445.09
2022-11-06T01:55:22.292Z,96401.38
2022-11-06T01:57:50.411Z,96500.69
2022-11-06T02:00:20.141Z,96448.34
2022-11-06T02:02:50.037Z,96490.16
2022-11-06T02:05:18.664Z,96470.88
2022-11-06T02:07:47.323Z,96488.94
2022-11-06T02:10:15.439Z,96489.03
2022-11-06T02:12:55.835Z,96489.03
2022-11-06T02:15:30.186Z,96470.94
2022-11-06T02:18:17.713Z,96494.78
2022-11-06T02:21:03.936Z,96495.69
2022-11-06T02:23:49.466Z,96499.97
2022-11-06T02:26:31.194Z,96499.91
2022-11-06T02:29:04.368Z,96476.09
2022-11-06T02:31:35.709Z,96494.78
2022-11-06T02:34:07.488Z,96490.53
2022-11-06T02:36:38.357Z,96392.97
2022-11-06T02:39:11.852Z,96459.81
2022-11-06T02:41:44.035Z,96494.28
2022-11-06T02:44:16.463Z,96491.13
2022-11-06T02:46:47.369Z,96488.84
2022-11-06T02:49:19.755Z,96413.13
2022-11-06T02:51:50.480Z,96409.00
2022-11-06T02:54:19.693Z,96473.66
2022-11-06T02:56:51.193Z,96486.28
2022-11-06T02:59:24.478Z,96474.84
2022-11-06T03:01:54.787Z,96492.50
2022-11-06T03:04:25.608Z,96495.19
2022-11-06T03:06:55.864Z,96353.41
2022-11-06T03:09:27.709Z,96488.31
2022-11-06T03:12:00.934Z,96487.19
2022-11-06T03:14:34.791Z,96485.72
2022-11-06T03:17:10.462Z,96485.78
2022-11-06T03:19:44.749Z,96481.69
2022-11-06T03:22:15.844Z,96491.81
2022-11-06T03:24:49.442Z,96484.75
2022-11-06T03:27:20.634Z,96498.25
2022-11-06T03:29:51.824Z,96498.59
2022-11-06T03:32:25.074Z,96508.88
2022-11-06T03:34:56.873Z,96495.44
2022-11-06T03:37:27.690Z,96498.75
2022-11-06T03:39:57.591Z,96497.91
2022-11-06T03:42:30.093Z,96517.31
2022-11-06T03:45:05.590Z,96401.75
2022-11-06T03:47:34.961Z,96487.13
2022-11-06T03:50:09.000Z,96484.72
2022-11-06T03:52:39.859Z,96383.75
2022-11-06T03:55:14.639Z,96505.41
2022-11-06T03:57:46.321Z,96503.75
2022-11-06T04:00:17.176Z,96472.47
2022-11-06T04:02:49.690Z,96506.91
2022-11-06T04:05:20.394Z,96498.47
2022-11-06T04:08:04.476Z,96492.75
2022-11-06T04:10:51.131Z,96467.06
2022-11-06T04:13:40.030Z,96499.78
2022-11-06T04:16:10.991Z,96501.06
2022-11-06T04:18:38.984Z,96492.47
2022-11-06T04:21:23.335Z,96452.53
2022-11-06T04:24:31.181Z,96466.44
2022-11-06T04:27:17.707Z,96482.97
2022-11-06T04:29:56.305Z,96484.44
2022-11-06T04:32:30.864Z,96478.00
2022-11-06T04:35:05.096Z,96478.59
2022-11-06T04:37:38.603Z,96462.66
2022-11-06T04:40:11.476Z,96434.13
2022-11-06T04:42:45.162Z,96487.00
2022-11-06T04:45:17.295Z,96364.47
2022-11-06T04:47:47.466Z,96484.41
2022-11-06T04:50:17.018Z,96484.41
2022-11-06T04:52:45.725Z,96480.31
2022-11-06T04:55:13.838Z,96470.34
2022-11-06T04:57:41.787Z,96367.06
2022-11-06T05:00:14.266Z,96473.59
2022-11-06T05:02:42.693Z,96458.28
2022-11-06T05:05:12.114Z,96473.09
2022-11-06T05:07:40.130Z,96389.31
2022-11-06T05:10:08.765Z,96482.44
2022-11-06T05:12:36.841Z,96373.03
2022-11-06T05:15:05.204Z,96476.81
2022-11-06T05:17:36.512Z,96482.69
2022-11-06T05:20:05.825Z,96441.34
2022-11-06T05:22:52.857Z,96480.16
2022-11-06T05:25:20.895Z,96474.28
2022-11-06T05:27:49.156Z,96445.63
2022-11-06T05:30:17.502Z,96292.50
2022-11-06T05:32:45.557Z,96474.34
2022-11-06T05:39:24.714Z,96465.09
2022-11-06T05:41:53.167Z,96445.44
2022-11-06T05:44:21.378Z,96461.72
2022-11-06T05:46:50.346Z,96437.66
2022-11-06T05:49:18.932Z,96387.56
2022-11-06T05:51:47.209Z,96463.16
2022-11-06T05:54:18.634Z,96443.03
2022-11-06T05:56:48.243Z,96450.41
2022-11-06T05:59:16.311Z,96428.28
2022-11-06T06:01:44.534Z,96455.06
2022-11-06T06:04:13.251Z,96455.88
2022-11-06T06:06:44.727Z,96451.81
2022-11-06T06:09:12.748Z,96448.66
2022-11-06T06:11:40.727Z,96455.97
2022-11-06T06:14:10.074Z,96461.94
2022-11-06T06:16:38.108Z,96466.09
2022-11-06T06:19:06.131Z,96483.69
2022-11-06T06:21:34.205Z,96500.44
2022-11-06T06:24:02.134Z,96474.84
2022-11-06T06:26:30.108Z,96431.94
2022-11-06T06:28:58.270Z,96450.19
2022-11-06T06:31:27.651Z,96480.91
2022-11-06T06:33:55.645Z,96450.97
2022-11-06T06:36:23.643Z,96477.84
2022-11-06T06:38:51.659Z,96481.63
2022-11-06T06:41:19.706Z,96479.53
2022-11-06T06:43:49.390Z,96470.22
2022-11-06T06:46:17.447Z,96451.63
2022-11-06T06:48:47.016Z,96484.16
2022-11-06T06:51:18.413Z,96456.31
2022-11-06T06:53:49.125Z,96472.34
2022-11-06T06:56:17.050Z,96427.63
2022-11-06T06:58:45.042Z,96473.16
2022-11-06T07:01:13.081Z,96479.38
2022-11-06T07:03:41.357Z,96480.63
2022-11-06T07:06:10.723Z,96433.78
2022-11-06T07:08:39.182Z,96446.06
2022-11-06T07:11:08.644Z,96449.25
2022-11-06T07:13:36.794Z,96477.63
2022-11-06T07:16:05.441Z,96456.94
2022-11-06T07:18:33.518Z,96425.97
2022-11-06T07:21:01.536Z,96483.03
2022-11-06T07:23:30.863Z,96384.38
2022-11-06T07:25:58.869Z,96475.34
2022-11-06T07:28:26.896Z,96428.84
2022-11-06T07:30:59.467Z,96468.53
2022-11-06T07:33:27.439Z,96470.16
2022-11-06T07:36:03.012Z,96468.16
2022-11-06T07:38:34.141Z,96467.69
2022-11-06T07:41:06.769Z,96444.63
2022-11-06T07:43:34.778Z,96367.69
2022-11-06T07:46:04.235Z,96440.94
2022-11-06T07:48:32.597Z,96457.50
2022-11-06T07:51:03.326Z,96375.78
2022-11-06T07:53:32.714Z,96437.03
2022-11-06T07:56:00.695Z,96446.59
2022-11-06T07:58:28.993Z,96428.53
2022-11-06T08:00:58.621Z,96453.91
2022-11-06T08:03:29.882Z,96439.91
2022-11-06T08:05:57.905Z,96443.09
2022-11-06T08:08:26.767Z,96427.75
2022-11-06T08:10:56.131Z,96437.03
2022-11-06T08:13:26.105Z,96432.56
2022-11-06T08:15:54.100Z,96411.47
2022-11-06T08:18:22.160Z,96397.28
2022-11-06T08:20:50.211Z,96423.28
2022-11-06T08:23:18.202Z,96411.47
2022-11-06T08:25:46.228Z,96368.59
2022-11-06T08:28:15.855Z,96419.03
2022-11-06T08:30:44.166Z,96406.56
2022-11-06T08:33:12.340Z,96398.47
2022-11-06T08:35:40.501Z,96401.06
2022-11-06T08:38:08.460Z,96402.72
2022-11-06T08:40:38.570Z,96381.41
2022-11-06T08:43:08.046Z,96394.91
2022-11-06T08:45:39.543Z,96326.13
2022-11-06T08:48:08.699Z,96392.03
2022-11-06T08:50:38.054Z,96395.72
2022-11-06T08:53:06.550Z,96400.78
2022-11-06T08:55:35.241Z,96401.44
2022-11-06T08:58:03.888Z,96398.28
2022-11-06T09:00:32.387Z,96385.41
2022-11-06T09:03:06.816Z,96376.34
2022-11-06T09:05:39.481Z,96386.72
2022-11-06T09:08:08.115Z,96394.16
2022-11-06T09:10:36.326Z,96378.88
2022-11-06T09:13:04.650Z,96391.16
2022-11-06T09:15:32.732Z,96377.66
2022-11-06T09:18:02.164Z,96384.91
2022-11-06T09:20:30.191Z,96385.06
2022-11-06T09:23:01.760Z,96372.25
2022-11-06T09:25:30.435Z,96387.50
2022-11-06T09:27:59.729Z,96381.94
2022-11-06T09:30:29.710Z,96383.22
2022-11-06T09:32:59.281Z,96390.38
2022-11-06T09:35:29.974Z,96382.56
2022-11-06T09:38:03.175Z,96381.66
2022-11-06T09:40:33.023Z,96361.88
2022-11-06T09:43:13.081Z,96363.28
2022-11-06T09:45:42.279Z,96372.88
2022-11-06T09:48:18.098Z,96369.97
2022-11-06T09:50:51.034Z,96369.75
2022-11-06T09:53:23.625Z,96372.63
2022-11-06T09:55:52.459Z,96367.28
2022-11-06T09:58:23.479Z,96352.03
2022-11-06T10:00:53.018Z,96271.19
2022-11-06T10:03:26.715Z,96355.22
2022-11-06T10:05:56.782Z,96345.38
2022-11-06T10:08:27.076Z,96359.03
2022-11-06T10:11:03.923Z,96354.38
2022-11-06T10:13:47.671Z,96349.72
2022-11-06T10:16:21.181Z,96348.38
2022-11-06T10:18:58.247Z,96344.75
2022-11-06T10:21:35.962Z,96345.59
2022-11-06T10:24:10.955Z,96336.56
2022-11-06T10:26:42.719Z,96341.75
2022-11-06T10:29:38.161Z,96324.72
2022-11-06T10:32:20.287Z,96313.06
2022-11-06T10:34:50.694Z,96311.09
2022-11-06T10:37:23.877Z,96231.31
2022-11-06T10:39:52.424Z,96309.59
2022-11-06T10:42:22.909Z,96308.66
2022-11-06T10:44:53.956Z,96299.06
2022-11-06T10:47:24.573Z,96294.63
2022-11-06T10:49:54.867Z,96285.41
2022-11-06T10:52:39.023Z,96299.19
2022-11-06T10:55:28.498Z,96290.97
2022-11-06T10:57:58.375Z,96278.88
2022-11-06T11:00:26.891Z,96305.69
2022-11-06T11:02:57.938Z,96274.31
2022-11-06T11:05:39.025Z,96283.28
2022-11-06T11:08:37.952Z,96258.69
2022-11-06T11:11:07.283Z,96267.44
2022-11-06T11:13:35.567Z,96240.59
2022-11-06T11:16:05.140Z,96246.97
2022-11-06T11:18:34.237Z,96255.31
2022-11-06T11:21:08.471Z,96255.91
2022-11-06T11:23:37.959Z,96258.00
2022-11-06T11:26:23.111Z,96233.34
2022-11-06T11:28:53.745Z,96131.91
2022-11-06T11:31:22.135Z,96248.94
2022-11-06T11:33:52.827Z,96238.22
2022-11-06T11:36:20.972Z,96221.91
2022-11-06T11:38:50.641Z,96207.94
2022-11-06T11:41:24.185Z,96197.72
2022-11-06T11:43:59.234Z,96196.31
2022-11-06T11:46:28.195Z,96181.63
2022-11-06T11:48:57.851Z,96122.69
2022-11-06T11:51:31.920Z,96188.09
2022-11-06T11:54:06.037Z,96203.41
2022-11-06T11:57:02.933Z,96205.03
2022-11-06T11:59:24.666Z,96190.16
2022-11-06T12:01:53.922Z,96194.25
2022-11-06T12:04:28.587Z,96189.00
2022-11-06T12:07:00.698Z,96181.63
2022-11-06T12:09:33.702Z,96194.81
2022-11-06T12:12:02.709Z,96182.91
2022-11-06T12:14:36.391Z,96175.81
2022-11-06T12:17:13.293Z,96166.59
2022-11-06T12:19:44.045Z,96169.56
2022-11-06T12:22:16.639Z,96161.00
2022-11-06T12:24:50.699Z,96146.81
2022-11-06T12:27:22.758Z,96130.03
2022-11-06T12:29:53.197Z,96135.41
2022-11-06T12:32:27.953Z,96141.09
2022-11-06T12:35:03.604Z,96141.78
2022-11-06T12:37:40.525Z,96159.75
2022-11-06T12:40:24.817Z,96147.59
2022-11-06T12:43:05.832Z,96096.34
2022-11-06T12:45:45.579Z,96141.53
2022-11-06T12:48:24.333Z,96136.09
2022-11-06T12:50:58.257Z,96125.97
2022-11-06T12:53:36.199Z,96135.31
2022-11-06T12:56:14.178Z,96121.50
2022-11-06T12:58:59.616Z,96091.03
2022-11-06T13:01:38.244Z,96042.38
2022-11-06T13:04:32.903Z,96109.91
2022-11-06T13:07:24.791Z,96103.91
2022-11-06T13:09:59.216Z,96091.50
2022-11-06T13:12:33.934Z,96102.41
2022-11-06T13:15:12.920Z,96102.94
2022-11-06T13:17:44.408Z,96104.34
2022-11-06T13:20:17.540Z,96113.03
2022-11-06T13:22:50.684Z,96107.56
2022-11-06T13:25:22.165Z,96101.69
2022-11-06T13:27:54.956Z,96103.91
2022-11-06T13:30:24.449Z,96102.63
2022-11-06T13:32:59.782Z,96095.25
2022-11-06T13:35:29.142Z,96086.47
2022-11-06T13:37:58.350Z,96103.81
2022-11-06T13:40:29.719Z,96084.69
2022-11-06T13:43:03.917Z,96086.81
2022-11-06T13:45:38.789Z,96084.34
2022-11-06T13:48:33.099Z,96085.53
2022-11-06T13:51:08.967Z,96078.56
2022-11-06T13:53:42.430Z,96072.84
2022-11-06T13:56:20.388Z,96064.44
2022-11-06T13:59:35.171Z,96069.38
2022-11-06T14:02:20.263Z,96060.75
2022-11-06T14:05:23.082Z,96067.59
2022-11-06T14:07:52.225Z,96059.66
2022-11-06T14:10:22.403Z,96047.34
2022-11-06T14:12:51.262Z,96046.97
2022-11-06T14:15:27.366Z,96045.34
2022-11-06T14:17:58.832Z,96049.53
2022-11-06T14:20:33.078Z,96039.72
2022-11-06T14:23:38.585Z,96031.91
2022-11-06T14:26:10.066Z,96012.00
2022-11-06T14:28:40.126Z,96031.91
2022-11-06T14:31:14.672Z,95993.69
2022-11-06T14:34:02.188Z,96014.66
2022-11-06T14:36:36.143Z,96012.25
2022-11-06T14:39:05.437Z,96010.44
2022-11-06T14:41:55.117Z,96001.59
2022-11-06T14:44:41.768Z,96005.47
2022-11-06T14:47:38.360Z,95999.41
2022-11-06T14:50:25.581Z,95958.50
2022-11-06T14:52:57.261Z,95892.84
2022-11-06T14:55:32.310Z,95992.75
2022-11-06T14:58:13.651Z,96001.03
2022-11-06T15:00:50.603Z,95990.53
2022-11-06T15:03:26.855Z,95997.44
2022-11-06T15:06:01.229Z,95996.53
2022-11-06T15:08:56.569Z,96003.31
2022-11-06T15:11:53.810Z,95994.78
2022-11-06T15:14:55.919Z,95993.72
2022-11-06T15:17:28.789Z,95971.38
2022-11-06T15:20:07.371Z,95993.88
2022-11-06T15:22:39.546Z,96007.88
2022-11-06T15:25:20.817Z,95995.78
2022-11-06T15:27:53.978Z,95992.63
2022-11-06T15:30:22.334Z,95987.56
2022-11-06T15:32:52.957Z,95975.34
2022-11-06T15:35:24.673Z,95977.44
2022-11-06T15:37:58.827Z,95972.31
2022-11-06T15:40:29.697Z,95960.34
2022-11-06T15:42:59.796Z,95965.56
2022-11-06T15:45:29.110Z,95969.63
2022-11-06T15:47:59.119Z,95971.13
2022-11-06T15:50:30.326Z,95985.25
2022-11-06T15:53:22.245Z,95962.00
2022-11-06T15:55:54.036Z,95950.34
2022-11-06T15:58:31.378Z,95960.69
2022-11-06T16:01:01.078Z,95960.22
2022-11-06T16:03:32.203Z,95961.25
2022-11-06T16:06:03.342Z,95970.28
2022-11-06T16:08:34.409Z,95966.72
2022-11-06T16:11:08.073Z,95961.13
2022-11-06T16:13:39.378Z,95948.47
2022-11-06T16:16:27.725Z,95970.91
2022-11-06T16:18:55.820Z,95847.72
2022-11-06T16:21:25.480Z,95967.94
2022-11-06T16:23:57.163Z,95952.00
2022-11-06T16:26:28.681Z,95968.63
2022-11-06T16:28:57.262Z,95972.09
2022-11-06T16:31:27.150Z,95970.47
2022-11-06T16:33:56.270Z,95977.53
2022-11-06T16:36:24.895Z,95954.59
2022-11-06T16:38:54.950Z,95883.91
2022-11-06T16:41:41.221Z,95981.19
2022-11-06T16:44:32.710Z,95977.22
2022-11-06T16:47:15.348Z,95976.22
2022-11-06T16:49:51.811Z,95971.03
2022-11-06T16:52:25.614Z,95977.94
2022-11-06T16:54:57.664Z,96003.75
2022-11-06T16:57:28.155Z,95946.66
2022-11-06T16:59:58.224Z,95994.47
2022-11-06T17:02:28.839Z,95990.16
2022-11-06T17:05:15.217Z,95980.47
2022-11-06T17:07:43.918Z,96000.06
2022-11-06T17:10:40.925Z,95992.69
2022-11-06T17:13:17.468Z,95994.84
2022-11-06T17:15:47.520Z,95985.44
2022-11-06T17:18:19.697Z,95995.88
2022-11-06T17:20:51.467Z,95996.59
2022-11-06T17:23:19.775Z,95967.09
2022-11-06T17:25:49.609Z,96001.53
2022-11-06T17:28:18.934Z,95990.50
2022-11-06T17:30:48.026Z,95993.19
2022-11-06T17:33:16.418Z,95979.22
2022-11-06T17:35:44.646Z,95990.16
2022-11-06T17:38:14.369Z,95978.25
2022-11-06T17:40:42.512Z,95988.63
2022-11-06T17:43:12.639Z,95992.03
2022-11-06T17:45:41.706Z,95983.50
2022-11-06T17:48:09.695Z,95981.25
2022-11-06T17:50:51.544Z,95975.34
2022-11-06T17:53:19.645Z,95960.47
2022-11-06T17:55:47.700Z,95967.25
2022-11-06T17:58:17.297Z,95960.94
2022-11-06T18:00:45.428Z,95959.94
2022-11-06T18:03:19.110Z,95959.03
2022-11-06T18:05:47.482Z,95953.78
2022-11-06T18:08:16.149Z,95862.25
2022-11-06T18:10:44.618Z,95936.91
2022-11-06T18:13:12.689Z,95952.78
2022-11-06T18:15:42.333Z,95918.25
2022-11-06T18:18:10.519Z,95946.41
2022-11-06T18:20:52.303Z,95950.94
2022-11-06T18:23:20.354Z,95949.91
2022-11-06T18:25:55.103Z,95945.25
2022-11-06T18:28:23.248Z,95951.63
2022-11-06T18:30:52.955Z,95943.56
2022-11-06T18:33:21.475Z,95958.19
2022-11-06T18:35:49.539Z,95926.28
2022-11-06T18:38:17.709Z,95948.22
2022-11-06T18:40:50.386Z,95949.78
2022-11-06T18:43:19.561Z,95943.22
2022-11-06T18:45:47.707Z,95947.59
2022-11-06T18:48:21.287Z,95953.41
2022-11-06T18:50:49.810Z,95946.84
2022-11-06T18:53:17.944Z,95908.78
2022-11-06T18:55:46.504Z,95902.53
2022-11-06T18:58:14.787Z,95900.28
2022-11-06T19:00:42.952Z,95926.84
2022-11-06T19:03:11.954Z,95946.78
2022-11-06T19:05:46.969Z,95948.50
2022-11-06T19:08:15.128Z,95949.78
2022-11-06T19:10:43.305Z,95953.97
2022-11-06T19:13:11.403Z,95947.41
2022-11-06T19:15:39.952Z,95945.84
2022-11-06T19:18:08.590Z,95921.19
2022-11-06T19:20:36.656Z,95938.09
2022-11-06T19:23:05.965Z,95939.50
2022-11-06T19:25:34.181Z,95930.47
2022-11-06T19:28:03.055Z,95935.16
2022-11-06T19:30:31.057Z,95938.53
2022-11-06T19:32:59.789Z,95934.28
2022-11-06T19:35:27.903Z,95943.69
2022-11-06T19:37:56.016Z,95931.34
2022-11-06T19:40:25.433Z,95934.91
2022-11-06T19:42:53.851Z,95912.66
2022-11-06T19:45:22.547Z,95913.75
2022-11-06T19:47:50.612Z,95927.91
2022-11-06T19:50:28.763Z,95904.94
2022-11-06T19:53:06.684Z,95914.94
2022-11-06T19:55:40.044Z,95923.97
2022-11-06T19:58:08.125Z,95899.59
2022-11-06T20:00:36.141Z,95930.50
2022-11-06T20:03:04.175Z,95934.84
2022-11-06T20:05:32.232Z,95797.72
2022-11-06T20:08:00.173Z,95932.66
2022-11-06T20:10:28.419Z,95901.31
2022-11-06T20:12:59.950Z,95935.28
2022-11-06T20:15:28.127Z,95933.84
2022-11-06T20:17:56.171Z,95932.38
2022-11-06T20:20:24.349Z,95920.94
2022-11-06T20:22:52.365Z,95943.34
2022-11-06T20:25:20.828Z,95930.41
2022-11-06T20:27:48.869Z,95929.50
2022-11-06T20:30:18.259Z,95902.56
2022-11-06T20:32:46.325Z,95937.09
2022-11-06T20:35:16.815Z,95943.97
2022-11-06T20:37:45.312Z,95943.16
2022-11-06T20:40:14.067Z,95921.94
2022-11-06T20:42:42.095Z,95953.16
2022-11-06T20:45:10.935Z,95938.53
2022-11-06T20:47:40.332Z,95945.44
2022-11-06T20:50:08.656Z,95950.63
2022-11-06T20:52:37.656Z,95944.81
2022-11-06T20:55:06.581Z,95951.84
2022-11-06T20:57:34.748Z,95950.06
2022-11-06T21:00:03.215Z,95893.44
2022-11-06T21:02:31.300Z,95948.06
2022-11-06T21:05:00.746Z,95943.78
2022-11-06T21:07:28.759Z,95946.34
2022-11-06T21:09:56.833Z,95945.44
2022-11-06T21:12:24.881Z,95944.63
2022-11-06T21:14:52.899Z,95912.16
2022-11-06T21:17:21.190Z,95948.59
2022-11-06T21:19:49.223Z,95942.72
2022-11-06T21:22:18.652Z,95946.50
2022-11-06T21:24:46.690Z,95952.66
2022-11-06T21:27:14.756Z,95949.03
2022-11-06T21:29:42.699Z,95933.25
2022-11-06T21:32:10.926Z,95950.59
2022-11-06T21:34:38.930Z,95947.81
2022-11-06T21:37:06.958Z,95947.00
2022-11-06T21:39:36.920Z,95955.59
2022-11-06T21:42:05.766Z,95961.56
2022-11-06T21:44:34.026Z,95939.59
2022-11-06T21:47:02.241Z,95952.91
2022-11-06T21:49:30.390Z,95946.13
2022-11-06T21:52:18.371Z,95954.56
2022-11-06T21:55:05.117Z,95939.00
2022-11-06T21:57:33.153Z,95961.50
2022-11-06T22:00:01.621Z,95960.38
2022-11-06T22:02:29.753Z,95965.09
2022-11-06T22:04:57.884Z,95946.34
2022-11-06T22:07:25.921Z,95953.69
2022-11-06T22:09:55.375Z,95938.84
2022-11-06T22:12:23.998Z,95861.41
2022-11-06T22:14:51.998Z,95967.28
2022-11-06T22:17:21.263Z,95984.31
2022-11-06T22:19:49.428Z,95971.72
2022-11-06T22:22:17.564Z,95957.84
2022-11-06T22:24:45.670Z,95880.53
2022-11-06T22:27:15.232Z,95960.59
2022-11-06T22:29:43.589Z,95982.84
2022-11-06T22:32:11.769Z,95972.78
2022-11-06T22:34:39.894Z,95972.97
2022-11-06T22:37:08.087Z,95872.06
2022-11-06T22:39:36.189Z,95986.78
2022-11-06T22:42:04.511Z,95979.56
2022-11-06T22:44:39.219Z,95979.94
2022-11-06T22:47:08.318Z,95973.38
2022-11-06T22:49:36.555Z,95899.59
2022-11-06T22:52:05.017Z,95981.97
2022-11-06T22:54:33.068Z,95989.72
2022-11-06T22:57:01.342Z,95985.16
2022-11-06T22:59:30.027Z,95993.66
2022-11-06T23:01:59.523Z,96013.06
2022-11-06T23:04:29.988Z,95968.97
2022-11-06T23:06:57.994Z,95986.88
2022-11-06T23:09:26.048Z,95996.28
2022-11-06T23:11:54.234Z,95895.34
2022-11-06T23:14:22.482Z,95989.22
2022-11-06T23:17:01.039Z,96006.97
2022-11-06T23:19:32.062Z,95932.69
2022-11-06T23:22:18.470Z,96007.47
2022-11-06T23:24:46.745Z,95987.88
2022-11-06T23:27:14.888Z,95995.47
2022-11-06T23:29:45.229Z,96000.78
2022-11-06T23:32:13.266Z,96003.31
2022-11-06T23:34:42.862Z,96008.38
2022-11-06T23:37:10.970Z,96008.38
2022-11-06T23:39:39.046Z,96011.81
2022-11-06T23:42:07.147Z,96037.97
2022-11-06T23:44:52.884Z,96005.53
2022-11-06T23:47:20.966Z,96019.34
2022-11-06T23:49:50.423Z,96009.13
2022-11-06T23:52:18.454Z,96012.78
2022-11-06T23:54:46.532Z,95999.06
2022-11-06T23:57:14.897Z,96008.88
2022-11-06T23:59:42.933Z,96014.19
